Time;durP1;ratioP1;P1;durP2;ratioP2;P2;SDS_P1;SDS_P2;PMS_P1;PMS_P2;Temp;Humidity;BMP_temperature;BMP_pressure;BME280_temperature;BME280_humidity;BME280_pressure;Samples;Min_cycle;Max_cycle;Signal;HPM_P1;HPM_P2
2022/12/29 00:02:10;;;;;;;2.20;1.20;;;9.60;99.90;;;;;;5052339;28;20285;-61
2022/12/29 00:04:37;;;;;;;2.80;1.37;;;9.60;99.90;;;;;;5052416;28;20733;-61
2022/12/29 00:07:05;;;;;;;2.30;1.43;;;9.60;99.90;;;;;;5052195;28;20629;-60
2022/12/29 00:09:32;;;;;;;3.93;1.30;;;9.60;99.90;;;;;;5052590;28;20233;-62
2022/12/29 00:12:00;;;;;;;1.10;1.00;;;9.70;99.90;;;;;;5052430;28;20202;-56
2022/12/29 00:17:13;;;;;;;1.30;1.00;;;9.70;99.90;;;;;;5052158;28;20219;-61
2022/12/29 00:36:16;;;;;;;2.43;1.00;;;9.50;99.90;;;;;;5051714;28;20245;-55
2022/12/29 00:44:19;;;;;;;1.43;1.00;;;9.50;99.90;;;;;;5050928;28;20204;-60
2022/12/29 00:46:46;;;;;;;2.40;1.00;;;9.50;99.90;;;;;;5051748;28;20588;-60
2022/12/29 00:49:32;;;;;;;1.70;1.10;;;9.50;99.90;;;;;;5051867;28;20608;-61
2022/12/29 00:52:01;;;;;;;1.10;1.00;;;9.60;99.90;;;;;;5051897;28;20204;-58
2022/12/29 00:54:30;;;;;;;1.60;1.10;;;9.60;99.90;;;;;;5051866;28;20206;-61
2022/12/29 00:56:57;;;;;;;1.40;1.10;;;9.70;99.90;;;;;;5051448;28;20279;-58
2022/12/29 00:59:25;;;;;;;1.30;1.07;;;9.70;99.90;;;;;;5051898;28;20228;-58
2022/12/29 01:01:53;;;;;;;1.27;0.90;;;9.70;99.90;;;;;;5051490;28;20646;-59
2022/12/29 01:04:21;;;;;;;0.83;0.77;;;9.70;99.90;;;;;;5051762;28;20267;-61
2022/12/29 01:06:48;;;;;;;1.13;0.80;;;9.70;99.90;;;;;;5051432;28;20209;-59
2022/12/29 01:12:01;;;;;;;0.93;0.83;;;9.70;99.90;;;;;;5051576;28;20279;-59
2022/12/29 01:14:27;;;;;;;0.70;0.70;;;9.60;99.90;;;;;;5051677;28;20209;-59
2022/12/29 01:16:55;;;;;;;1.17;0.90;;;9.70;99.90;;;;;;5051167;28;20213;-61
2022/12/29 01:19:22;;;;;;;1.00;0.70;;;9.70;99.90;;;;;;5051459;28;20427;-59
2022/12/29 01:21:49;;;;;;;3.00;0.60;;;9.70;99.90;;;;;;5051054;28;20252;-61
2022/12/29 01:24:16;;;;;;;1.23;0.80;;;9.80;99.90;;;;;;5051767;28;20354;-61
2022/12/29 01:26:42;;;;;;;1.23;0.77;;;9.80;99.90;;;;;;5051101;28;20252;-62
2022/12/29 01:29:11;;;;;;;1.00;0.80;;;9.80;99.90;;;;;;5069644;28;20216;-61
2022/12/29 01:31:38;;;;;;;0.97;0.70;;;9.90;99.90;;;;;;5071459;28;20212;-61
2022/12/29 01:34:05;;;;;;;0.83;0.60;;;9.90;99.90;;;;;;5071358;28;20252;-61
2022/12/29 01:36:32;;;;;;;0.80;0.70;;;10.00;99.90;;;;;;5070960;28;20242;-61
2022/12/29 01:38:59;;;;;;;0.90;0.60;;;10.00;99.90;;;;;;5071262;28;20293;-61
2022/12/29 01:41:26;;;;;;;0.40;0.40;;;10.00;99.90;;;;;;5071162;28;20733;-61
2022/12/29 01:43:56;;;;;;;0.50;0.50;;;10.00;99.90;;;;;;5071473;28;20213;-61
2022/12/29 01:46:28;;;;;;;0.60;0.60;;;10.00;99.90;;;;;;5071213;28;20338;-61
2022/12/29 01:49:00;;;;;;;1.03;0.60;;;10.00;99.90;;;;;;5071096;28;20290;-61
2022/12/29 01:51:29;;;;;;;0.67;0.60;;;10.00;99.90;;;;;;5071473;28;20205;-61
2022/12/29 01:53:58;;;;;;;0.50;0.50;;;10.00;99.90;;;;;;5071232;28;20213;-62
2022/12/29 01:56:25;;;;;;;1.47;0.63;;;10.00;99.90;;;;;;5066398;28;20626;-61
2022/12/29 01:58:56;;;;;;;0.60;0.50;;;10.00;99.90;;;;;;5058803;28;20218;-61
2022/12/29 02:01:24;;;;;;;1.73;0.60;;;10.00;99.90;;;;;;5054560;28;20210;-61
2022/12/29 02:03:52;;;;;;;0.47;0.40;;;10.00;99.90;;;;;;5054872;28;20243;-61
2022/12/29 02:06:22;;;;;;;0.30;0.30;;;10.10;99.90;;;;;;5054465;28;20624;-62
2022/12/29 02:08:53;;;;;;;0.67;0.50;;;10.10;99.90;;;;;;5054700;28;20228;-61
2022/12/29 02:11:20;;;;;;;0.43;0.40;;;10.10;99.90;;;;;;5054552;28;20266;-62
2022/12/29 02:13:47;;;;;;;1.63;0.50;;;10.10;99.90;;;;;;5054541;28;20212;-61
2022/12/29 02:16:30;;;;;;;1.10;0.47;;;10.10;99.90;;;;;;5054816;28;20210;-61
2022/12/29 02:19:17;;;;;;;0.77;0.50;;;10.20;99.90;;;;;;5054790;28;20606;-60
2022/12/29 02:22:01;;;;;;;0.40;0.40;;;10.20;99.90;;;;;;5054649;28;20209;-60
2022/12/29 02:25:03;;;;;;;2.13;0.47;;;10.10;99.90;;;;;;5054639;28;20194;-59
2022/12/29 02:27:44;;;;;;;1.07;0.60;;;10.20;99.90;;;;;;5032547;28;20212;-58
2022/12/29 02:30:26;;;;;;;0.60;0.60;;;10.20;99.90;;;;;;5054769;28;20316;-60
2022/12/29 02:33:01;;;;;;;0.60;0.60;;;10.30;99.90;;;;;;5054569;28;20210;-60
2022/12/29 02:35:36;;;;;;;0.60;0.40;;;10.20;99.90;;;;;;5054236;28;20327;-62
2022/12/29 02:38:14;;;;;;;0.50;0.50;;;10.20;99.90;;;;;;5053706;28;20683;-61
2022/12/29 02:40:49;;;;;;;0.60;0.60;;;10.30;99.90;;;;;;5054028;28;20607;-61
2022/12/29 02:43:24;;;;;;;0.77;0.40;;;10.30;99.90;;;;;;5054216;28;20229;-60
2022/12/29 02:45:56;;;;;;;1.00;0.70;;;10.30;99.90;;;;;;5054191;28;20263;-61
2022/12/29 02:48:29;;;;;;;0.40;0.40;;;10.40;99.90;;;;;;5053893;28;20294;-61
2022/12/29 02:51:01;;;;;;;1.30;0.60;;;10.40;99.90;;;;;;5053935;28;20209;-59
2022/12/29 02:56:15;;;;;;;0.70;0.60;;;10.50;99.90;;;;;;5053743;28;20274;-61
2022/12/29 02:58:41;;;;;;;2.47;0.60;;;10.50;99.90;;;;;;5067981;28;20715;-61
2022/12/29 03:01:23;;;;;;;2.03;0.50;;;10.50;99.90;;;;;;5073705;28;20209;-59
2022/12/29 03:04:17;;;;;;;0.87;0.70;;;10.50;99.90;;;;;;5073639;28;20221;-59
2022/12/29 03:06:56;;;;;;;0.93;0.60;;;10.50;99.90;;;;;;5072700;28;20213;-59
2022/12/29 03:09:36;;;;;;;1.30;0.70;;;10.60;99.90;;;;;;5073587;28;20361;-61
2022/12/29 03:12:15;;;;;;;0.73;0.60;;;10.60;99.90;;;;;;5073478;28;20639;-59
2022/12/29 03:17:47;;;;;;;1.10;0.77;;;10.70;99.90;;;;;;5073251;28;20217;-61
2022/12/29 03:20:20;;;;;;;1.03;0.73;;;10.70;99.90;;;;;;5073182;28;20233;-61
2022/12/29 03:22:50;;;;;;;1.93;0.60;;;10.60;99.90;;;;;;5073221;28;20289;-61
2022/12/29 03:25:21;;;;;;;3.90;0.70;;;10.70;99.90;;;;;;5070129;28;20886;-57
2022/12/29 03:27:52;;;;;;;0.90;0.67;;;10.70;99.90;;;;;;5053205;28;20205;-61
2022/12/29 03:30:19;;;;;;;1.23;0.70;;;10.70;99.90;;;;;;5053031;28;20239;-61
2022/12/29 03:32:50;;;;;;;1.80;0.60;;;10.70;99.90;;;;;;5052987;28;20210;-61
2022/12/29 03:35:21;;;;;;;3.63;0.80;;;10.70;99.90;;;;;;5052896;28;20231;-61
2022/12/29 03:37:56;;;;;;;2.73;1.33;;;10.70;99.90;;;;;;5052495;28;20201;-61
2022/12/29 03:40:24;;;;;;;0.93;0.40;;;10.70;99.90;;;;;;5052958;28;20204;-60
2022/12/29 03:42:51;;;;;;;1.47;0.50;;;10.70;99.90;;;;;;5052410;28;20222;-58
2022/12/29 03:45:18;;;;;;;1.30;0.80;;;10.80;99.90;;;;;;5052824;28;20213;-62
2022/12/29 03:47:46;;;;;;;0.90;0.60;;;10.80;99.90;;;;;;5052387;28;20209;-61
2022/12/29 03:50:13;;;;;;;2.20;0.60;;;10.80;99.90;;;;;;5052722;28;20237;-62
2022/12/29 03:52:39;;;;;;;1.47;0.60;;;10.70;99.90;;;;;;5052733;28;20213;-61
2022/12/29 03:55:07;;;;;;;1.13;0.70;;;10.50;99.90;;;;;;5053886;28;20217;-62
2022/12/29 03:57:34;;;;;;;0.77;0.47;;;10.50;99.90;;;;;;5064005;28;20231;-57
2022/12/29 04:00:00;;;;;;;0.73;0.60;;;10.40;99.90;;;;;;5072437;28;20225;-60
2022/12/29 04:02:27;;;;;;;0.60;0.60;;;10.30;99.90;;;;;;5072356;28;20236;-59
2022/12/29 04:04:55;;;;;;;1.60;0.70;;;10.30;99.90;;;;;;5072666;28;20239;-62
2022/12/29 04:07:22;;;;;;;1.63;0.90;;;10.30;99.90;;;;;;5072155;28;20209;-61
2022/12/29 04:09:48;;;;;;;1.57;0.67;;;10.20;99.90;;;;;;5072468;28;20319;-62
2022/12/29 04:12:15;;;;;;;0.70;0.57;;;10.20;99.90;;;;;;5072381;28;20204;-61
2022/12/29 04:14:42;;;;;;;0.70;0.70;;;10.20;99.90;;;;;;5072207;28;20213;-61
2022/12/29 04:17:09;;;;;;;1.13;0.60;;;10.20;99.90;;;;;;5072434;28;20700;-58
2022/12/29 04:19:35;;;;;;;2.60;0.83;;;10.20;99.90;;;;;;5072262;28;20236;-57
2022/12/29 04:22:03;;;;;;;0.53;0.53;;;10.20;99.90;;;;;;5072181;28;20239;-55
2022/12/29 04:24:30;;;;;;;0.80;0.57;;;10.20;99.90;;;;;;5072238;28;20599;-59
2022/12/29 04:26:57;;;;;;;0.70;0.53;;;10.20;99.90;;;;;;5063652;28;20326;-59
2022/12/29 04:29:23;;;;;;;;;;;10.30;99.90;;;;;;5052352;28;20044;-58
2022/12/29 04:31:50;;;;;;;;;;;10.30;99.90;;;;;;5052853;28;19925;-61
2022/12/29 04:34:17;;;;;;;;;;;10.40;99.90;;;;;;5052954;28;19924;-63
2022/12/29 04:36:43;;;;;;;;;;;10.40;99.90;;;;;;5052237;28;19928;-62
2022/12/29 04:39:12;;;;;;;1.27;0.53;;;10.40;99.90;;;;;;5051551;28;20216;-62
2022/12/29 04:41:38;;;;;;;1.80;0.50;;;10.50;99.90;;;;;;5051794;28;20674;-61
2022/12/29 04:44:05;;;;;;;1.00;0.60;;;10.50;99.90;;;;;;5050640;28;20823;-61
2022/12/29 04:46:32;;;;;;;1.73;0.65;;;10.70;99.90;;;;;;5050598;28;20421;-62
2022/12/29 04:49:00;;;;;;;1.67;0.50;;;10.80;99.90;;;;;;5051802;28;20288;-62
2022/12/29 04:51:27;;;;;;;1.90;0.70;;;10.90;99.90;;;;;;5051917;28;20288;-61
2022/12/29 04:53:53;;;;;;;0.40;0.40;;;10.90;99.90;;;;;;5051739;28;20205;-62
2022/12/29 04:56:21;;;;;;;1.70;0.40;;;10.90;99.90;;;;;;5059683;28;20198;-62
2022/12/29 04:58:48;;;;;;;1.10;0.80;;;11.00;99.90;;;;;;5051808;28;20785;-61
2022/12/29 05:01:15;;;;;;;0.43;0.40;;;11.00;99.90;;;;;;5051492;28;20228;-60
2022/12/29 05:03:41;;;;;;;0.70;0.60;;;11.10;99.90;;;;;;5051646;28;20604;-63
2022/12/29 05:06:08;;;;;;;0.80;0.60;;;11.10;99.90;;;;;;5051542;28;20253;-59
2022/12/29 05:08:35;;;;;;;0.90;0.70;;;11.10;99.90;;;;;;5051548;28;20227;-61
2022/12/29 05:11:01;;;;;;;1.00;0.70;;;11.10;99.90;;;;;;5051739;28;20210;-62
2022/12/29 05:13:29;;;;;;;0.83;0.60;;;11.10;99.90;;;;;;5051621;28;20205;-62
2022/12/29 05:15:56;;;;;;;2.07;0.73;;;11.10;99.90;;;;;;5051340;28;20243;-61
2022/12/29 05:18:23;;;;;;;1.40;0.80;;;11.10;99.90;;;;;;5051621;28;20230;-59
2022/12/29 05:20:50;;;;;;;1.67;0.60;;;11.10;99.90;;;;;;5051963;28;20600;-61
2022/12/29 05:23:16;;;;;;;;;;;11.10;99.90;;;;;;5051766;28;20488;-61
2022/12/29 05:25:44;;;;;;;;;;;11.10;99.90;;;;;;5052059;28;19927;-59
2022/12/29 05:28:11;;;;;;;1.52;1.00;;;11.10;99.90;;;;;;5050102;28;20418;-60
2022/12/29 05:30:39;;;;;;;1.95;0.90;;;11.20;99.90;;;;;;5053173;28;21087;-59
2022/12/29 05:33:06;;;;;;;3.13;1.05;;;11.20;99.90;;;;;;5054285;28;20466;-58
2022/12/29 05:35:33;;;;;;;2.40;0.80;;;11.20;99.90;;;;;;5055198;28;20298;-62
2022/12/29 05:38:00;;;;;;;;;;;11.20;99.90;;;;;;5055046;28;20155;-62
2022/12/29 05:40:26;;;;;;;2.83;0.90;;;11.30;99.90;;;;;;5055430;28;20853;-59
2022/12/29 05:42:53;;;;;;;;;;;11.20;99.90;;;;;;5055546;28;20122;-62
2022/12/29 05:45:22;;;;;;;;;;;11.30;99.90;;;;;;5055341;28;19921;-60
2022/12/29 05:47:50;;;;;;;;;;;11.30;99.90;;;;;;5055284;28;19951;-59
2022/12/29 05:50:17;;;;;;;;;;;11.30;99.90;;;;;;5055354;28;19925;-62
2022/12/29 05:52:43;;;;;;;;;;;11.30;99.90;;;;;;5055364;28;20342;-56
2022/12/29 05:55:10;;;;;;;2.53;0.80;;;11.20;99.90;;;;;;5057028;28;20278;-59
2022/12/29 05:57:37;;;;;;;1.63;0.70;;;11.20;99.90;;;;;;5066607;28;20205;-62
2022/12/29 06:00:05;;;;;;;2.88;0.80;;;11.20;99.90;;;;;;5073570;28;20465;-62
2022/12/29 06:02:32;;;;;;;3.47;0.85;;;11.20;99.90;;;;;;5073496;28;20415;-61
2022/12/29 06:05:00;;;;;;;1.40;0.80;;;11.30;99.90;;;;;;5073448;28;20424;-62
2022/12/29 06:07:26;;;;;;;1.30;0.68;;;11.30;96.00;;;;;;5073266;28;20816;-62
2022/12/29 06:09:53;;;;;;;3.17;0.90;;;11.30;96.90;;;;;;5073640;28;20974;-62
2022/12/29 06:12:19;;;;;;;1.47;0.80;;;11.30;99.90;;;;;;5073485;28;20454;-62
2022/12/29 06:14:46;;;;;;;3.10;1.17;;;11.30;99.90;;;;;;5074652;28;20209;-62
2022/12/29 06:17:13;;;;;;;2.67;0.98;;;11.30;98.30;;;;;;5073023;28;20445;-62
2022/12/29 06:19:39;;;;;;;;;;;11.30;94.90;;;;;;5074738;28;20056;-62
2022/12/29 06:22:08;;;;;;;;;;;11.30;95.10;;;;;;5075002;28;19974;-62
2022/12/29 06:24:34;;;;;;;;;;;11.30;93.40;;;;;;5074829;28;20011;-62
2022/12/29 06:27:01;;;;;;;;;;;11.30;92.20;;;;;;5065676;28;19970;-62
2022/12/29 06:29:27;;;;;;;;;;;11.20;94.80;;;;;;5054589;28;20557;-62
2022/12/29 06:31:57;;;;;;;;;;;11.20;94.50;;;;;;5054606;28;20329;-62
2022/12/29 06:34:24;;;;;;;;;;;11.20;91.80;;;;;;5054798;28;20060;-63
2022/12/29 06:36:50;;;;;;;;;;;11.10;97.20;;;;;;5054333;28;19975;-60
2022/12/29 06:39:18;;;;;;;;;;;11.10;95.10;;;;;;5054463;28;19926;-59
2022/12/29 06:41:45;;;;;;;;;;;11.00;97.30;;;;;;5053346;28;19920;-60
2022/12/29 06:44:11;;;;;;;;;;;10.90;95.90;;;;;;5054401;28;19990;-59
2022/12/29 06:46:38;;;;;;;;;;;10.90;99.90;;;;;;5053969;28;19921;-62
2022/12/29 06:49:04;;;;;;;;;;;10.90;99.90;;;;;;5054132;28;19974;-62
2022/12/29 06:51:31;;;;;;;;;;;10.90;98.50;;;;;;5054490;28;19925;-62
2022/12/29 06:53:57;;;;;;;;;;;10.90;99.90;;;;;;5054292;28;19978;-61
2022/12/29 06:56:25;;;;;;;;;;;10.90;99.90;;;;;;5062409;28;19920;-63
2022/12/29 06:58:52;;;;;;;;;;;10.90;99.90;;;;;;5069996;28;19924;-62
2022/12/29 07:01:18;;;;;;;;;;;10.90;99.50;;;;;;5074199;28;19927;-63
2022/12/29 07:03:45;;;;;;;;;;;10.90;99.00;;;;;;5074098;28;20338;-62
2022/12/29 07:06:11;;;;;;;;;;;10.90;99.90;;;;;;5073988;28;19920;-62
2022/12/29 07:08:39;;;;;;;;;;;10.80;99.90;;;;;;5074162;28;19920;-60
2022/12/29 07:11:06;;;;;;;;;;;10.80;99.90;;;;;;5073979;28;19968;-60
2022/12/29 07:13:33;;;;;;;;;;;10.80;99.90;;;;;;5073987;28;19928;-62
2022/12/29 07:16:00;;;;;;;;;;;10.70;99.90;;;;;;5073409;28;20341;-62
2022/12/29 07:18:26;;;;;;;;;;;10.70;99.90;;;;;;5073642;28;19924;-62
2022/12/29 07:20:53;;;;;;;;;;;10.70;99.90;;;;;;5073658;28;19924;-62
2022/12/29 07:23:19;;;;;;;;;;;10.70;99.90;;;;;;5073613;28;19925;-62
2022/12/29 07:25:46;;;;;;;;;;;10.70;99.90;;;;;;5066704;28;19974;-62
2022/12/29 07:28:13;;;;;;;1.42;0.73;;;10.60;99.90;;;;;;5059898;28;20480;-63
2022/12/29 07:30:41;;;;;;;2.50;0.67;;;10.60;99.90;;;;;;5052878;28;20277;-59
2022/12/29 07:33:08;;;;;;;3.57;0.80;;;10.60;99.90;;;;;;5053036;28;20218;-60
2022/12/29 07:35:35;;;;;;;1.20;0.70;;;10.60;99.90;;;;;;5052977;28;20201;-60
2022/12/29 07:38:02;;;;;;;3.37;0.60;;;10.60;99.90;;;;;;5052811;28;20571;-60
2022/12/29 07:40:28;;;;;;;2.93;0.80;;;10.60;97.20;;;;;;5052971;28;20207;-62
2022/12/29 07:42:55;;;;;;;4.07;0.50;;;10.60;92.80;;;;;;5052740;28;20209;-61
2022/12/29 07:45:22;;;;;;;1.83;0.67;;;10.60;73.10;;;;;;5052886;28;20234;-62
2022/12/29 07:47:50;;;;;;;2.40;0.67;;;10.60;51.00;;;;;;5052835;28;20318;-62
2022/12/29 07:50:17;;;;;;;1.30;0.60;;;10.60;37.30;;;;;;5052908;28;20580;-62
2022/12/29 07:52:44;;;;;;;3.03;0.80;;;10.60;28.80;;;;;;5052237;28;20217;-62
2022/12/29 07:55:11;;;;;;;2.13;0.60;;;10.60;28.20;;;;;;5052474;28;20197;-61
2022/12/29 07:57:38;;;;;;;2.30;0.80;;;10.70;20.00;;;;;;5060705;28;20209;-61
2022/12/29 08:00:05;;;;;;;3.07;0.80;;;10.60;25.90;;;;;;5052703;28;20229;-60
2022/12/29 08:02:32;;;;;;;2.40;1.20;;;10.60;30.10;;;;;;5052583;28;20451;-62
2022/12/29 08:05:00;;;;;;;3.60;0.80;;;10.70;26.90;;;;;;5052430;28;20293;-60
2022/12/29 08:07:27;;;;;;;1.63;0.80;;;10.60;36.10;;;;;;5052377;28;20213;-62
2022/12/29 08:09:54;;;;;;;4.57;0.80;;;10.60;28.70;;;;;;5052249;28;20234;-59
2022/12/29 08:12:21;;;;;;;4.13;0.80;;;10.60;31.40;;;;;;5052462;28;20222;-60
2022/12/29 08:14:47;;;;;;;5.47;1.00;;;10.70;1.00;;;;;;5052600;28;20281;-60
2022/12/29 08:17:14;;;;;;;4.53;0.90;;;10.70;18.20;;;;;;5052201;28;20210;-60
2022/12/29 08:19:42;;;;;;;5.13;0.83;;;10.60;26.30;;;;;;5052204;28;20667;-60
2022/12/29 08:22:10;;;;;;;1.87;0.80;;;10.60;23.40;;;;;;5051990;28;20206;-62
2022/12/29 08:24:37;;;;;;;3.67;1.00;;;10.60;17.10;;;;;;5051891;28;20271;-62
2022/12/29 08:27:03;;;;;;;2.40;1.00;;;10.60;16.00;;;;;;5060771;28;20653;-57
2022/12/29 08:29:30;;;;;;;4.50;1.23;;;10.60;3.50;;;;;;5072043;28;20236;-57
2022/12/29 08:31:57;;;;;;;6.23;0.80;;;10.60;1.00;;;;;;5072020;28;20694;-58
2022/12/29 08:34:24;;;;;;;5.73;1.03;;;10.60;4.50;;;;;;5072102;28;20209;-61
2022/12/29 08:36:50;;;;;;;3.87;1.20;;;10.60;7.70;;;;;;5071428;28;20204;-55
2022/12/29 08:39:18;;;;;;;5.70;1.00;;;10.60;9.00;;;;;;5071774;28;20781;-58
2022/12/29 08:41:45;;;;;;;3.50;0.80;;;10.70;1.00;;;;;;5071922;28;20208;-57
2022/12/29 08:44:12;;;;;;;2.53;0.90;;;10.70;1.90;;;;;;5071913;28;20225;-60
2022/12/29 08:46:38;;;;;;;3.73;0.70;;;10.70;1.00;;;;;;5071579;28;20205;-62
2022/12/29 08:49:05;;;;;;;3.07;1.03;;;10.70;1.00;;;;;;5072162;28;20225;-62
2022/12/29 08:51:32;;;;;;;6.57;1.00;;;10.70;1.00;;;;;;5071765;28;20694;-62
2022/12/29 08:53:59;;;;;;;2.93;0.77;;;10.70;8.00;;;;;;5071570;28;20737;-60
2022/12/29 08:56:28;;;;;;;5.07;1.23;;;10.60;6.50;;;;;;5063290;28;20201;-63
2022/12/29 08:58:54;;;;;;;3.50;0.80;;;10.60;7.70;;;;;;5055314;28;20720;-62
2022/12/29 09:01:21;;;;;;;4.30;0.90;;;10.60;25.70;;;;;;5051657;28;20677;-63
2022/12/29 09:03:48;;;;;;;3.47;0.90;;;10.60;14.70;;;;;;5051656;28;20209;-62
2022/12/29 09:06:17;;;;;;;6.60;1.03;;;10.50;50.70;;;;;;5055102;28;20212;-62
2022/12/29 09:08:44;;;;;;;3.47;1.00;;;10.40;54.40;;;;;;5055650;28;20606;-62
2022/12/29 09:11:13;;;;;;;4.07;1.30;;;10.40;92.40;;;;;;5055838;28;20206;-62
2022/12/29 09:13:42;;;;;;;3.87;0.93;;;10.20;99.90;;;;;;5055585;28;20301;-63
2022/12/29 09:16:08;;;;;;;5.80;1.37;;;10.20;84.30;;;;;;5055607;28;20201;-62
2022/12/29 09:18:35;;;;;;;5.83;0.97;;;10.10;91.40;;;;;;5055331;28;20232;-61
2022/12/29 09:21:05;;;;;;;3.83;0.77;;;10.10;91.70;;;;;;5055425;28;20676;-62
2022/12/29 09:23:32;;;;;;;;;;;10.20;70.10;;;;;;5056078;28;20052;-62
2022/12/29 09:25:59;;;;;;;2.75;0.90;;;10.30;38.20;;;;;;5062434;28;20448;-61
2022/12/29 09:28:25;;;;;;;5.13;1.20;;;10.30;50.00;;;;;;5055738;28;20218;-61
2022/12/29 09:30:53;;;;;;;5.33;1.40;;;10.30;42.90;;;;;;5055250;28;20209;-60
2022/12/29 09:33:20;;;;;;;6.10;1.30;;;10.40;39.50;;;;;;5055196;28;20562;-61
2022/12/29 09:35:52;;;;;;;5.03;1.40;;;10.50;36.00;;;;;;5055225;28;20217;-59
2022/12/29 09:38:20;;;;;;;5.77;2.23;;;10.50;27.70;;;;;;5054831;28;20230;-61
2022/12/29 09:40:51;;;;;;;4.47;1.23;;;10.50;17.90;;;;;;5055348;28;20209;-61
2022/12/29 09:43:29;;;;;;;3.53;1.10;;;10.50;26.70;;;;;;5055222;28;20211;-59
2022/12/29 09:46:05;;;;;;;5.33;1.20;;;10.40;30.80;;;;;;5054677;28;20229;-60
2022/12/29 09:48:37;;;;;;;4.43;1.10;;;10.40;30.90;;;;;;5055602;28;20229;-63
2022/12/29 09:51:11;;;;;;;9.57;1.50;;;10.50;28.10;;;;;;5055096;28;20209;-59
2022/12/29 09:53:41;;;;;;;6.13;0.90;;;10.50;29.60;;;;;;5055091;28;20205;-61
2022/12/29 09:56:15;;;;;;;5.10;1.00;;;10.50;25.10;;;;;;5062889;28;20213;-61
2022/12/29 09:58:51;;;;;;;3.27;1.20;;;10.50;28.90;;;;;;5054918;28;20623;-63
2022/12/29 10:01:28;;;;;;;7.70;1.57;;;10.50;31.90;;;;;;5055033;28;20264;-60
2022/12/29 10:03:58;;;;;;;2.30;1.10;;;10.50;26.80;;;;;;5055728;28;20213;-60
2022/12/29 10:06:32;;;;;;;3.60;0.80;;;10.50;26.10;;;;;;5054367;28;20225;-62
2022/12/29 10:09:06;;;;;;;3.23;1.20;;;10.50;19.50;;;;;;5054881;28;20225;-62
2022/12/29 10:11:53;;;;;;;4.93;1.13;;;10.50;6.70;;;;;;5055283;28;20213;-61
2022/12/29 10:14:33;;;;;;;4.37;1.10;;;10.50;1.00;;;;;;5055752;28;20213;-61
2022/12/29 10:17:14;;;;;;;4.50;0.93;;;10.50;1.00;;;;;;5055085;28;20651;-62
2022/12/29 10:19:56;;;;;;;3.53;1.10;;;10.60;1.00;;;;;;5055544;28;20226;-61
2022/12/29 10:22:35;;;;;;;4.43;0.90;;;10.60;1.00;;;;;;5049749;28;20678;-62
2022/12/29 10:25:09;;;;;;;7.73;1.20;;;10.70;1.00;;;;;;5066591;28;20220;-63
2022/12/29 10:27:36;;;;;;;7.13;1.20;;;10.70;1.00;;;;;;5054550;28;20630;-61
2022/12/29 10:30:05;;;;;;;3.80;1.30;;;10.70;1.00;;;;;;5063887;28;20229;-60
2022/12/29 10:32:38;;;;;;;5.43;1.53;;;10.70;1.00;;;;;;5066042;28;20296;-60
2022/12/29 10:35:13;;;;;;;4.53;1.20;;;10.70;1.00;;;;;;5075078;28;20219;-61
2022/12/29 10:37:46;;;;;;;4.60;0.93;;;10.70;1.00;;;;;;5074233;28;20211;-58
2022/12/29 10:40:20;;;;;;;3.27;0.80;;;10.70;1.00;;;;;;5074440;28;20260;-56
2022/12/29 10:42:51;;;;;;;4.67;1.13;;;10.80;1.00;;;;;;5073923;28;20216;-55
2022/12/29 10:45:19;;;;;;;2.33;1.10;;;10.80;1.00;;;;;;5073637;28;20315;-57
2022/12/29 10:47:53;;;;;;;6.77;1.13;;;10.90;1.00;;;;;;5073751;28;20672;-57
2022/12/29 10:50:20;;;;;;;5.17;0.90;;;10.90;1.00;;;;;;5073537;28;20226;-57
2022/12/29 10:52:48;;;;;;;7.20;1.17;;;10.90;1.00;;;;;;5065156;28;20596;-49
2022/12/29 10:55:22;;;;;;;4.93;1.40;;;11.00;1.00;;;;;;5053212;28;20193;-55
2022/12/29 10:57:49;;;;;;;7.70;1.40;;;10.90;1.00;;;;;;5061202;28;20210;-53
2022/12/29 11:00:20;;;;;;;5.57;1.20;;;10.90;1.00;;;;;;5053179;28;20679;-57
2022/12/29 11:03:20;;;;;;;5.67;1.30;;;10.80;1.00;;;;;;5053473;28;20212;-58
2022/12/29 11:05:53;;;;;;;5.33;1.10;;;10.80;1.00;;;;;;5053645;28;20236;-53
2022/12/29 11:08:22;;;;;;;4.30;0.90;;;10.80;1.00;;;;;;5053258;28;20230;-53
2022/12/29 11:10:59;;;;;;;4.60;1.10;;;10.80;1.00;;;;;;5053050;28;20707;-61
2022/12/29 11:13:29;;;;;;;6.50;1.20;;;10.80;1.00;;;;;;5052699;28;20343;-59
2022/12/29 11:15:55;;;;;;;6.70;1.23;;;10.80;1.00;;;;;;5053210;28;20209;-54
2022/12/29 11:18:25;;;;;;;4.80;0.93;;;10.80;1.00;;;;;;5052826;28;20226;-53
2022/12/29 11:20:53;;;;;;;;;;;10.80;1.00;;;;;;5053196;28;20550;-58
2022/12/29 11:23:26;;;;;;;4.67;1.47;;;10.80;1.00;;;;;;5052111;28;20216;-59
2022/12/29 11:26:09;;;;;;;5.47;1.20;;;10.80;1.00;;;;;;5059901;28;20221;-60
2022/12/29 11:28:36;;;;;;;9.77;1.27;;;10.70;1.00;;;;;;5059125;28;20224;-59
2022/12/29 11:31:04;;;;;;;8.43;1.03;;;10.70;1.00;;;;;;5072872;28;20212;-57
2022/12/29 11:33:34;;;;;;;7.17;1.80;;;10.70;1.00;;;;;;5071804;28;20210;-59
2022/12/29 11:36:05;;;;;;;2.20;0.80;;;10.70;1.00;;;;;;5072137;28;20259;-61
2022/12/29 11:38:36;;;;;;;6.72;1.52;;;10.70;1.00;;;;;;5070951;28;20415;-56
2022/12/29 11:41:04;;;;;;;6.55;1.48;;;10.70;1.00;;;;;;5071436;28;20452;-59
2022/12/29 11:43:34;;;;;;;6.93;1.38;;;10.80;1.00;;;;;;5065641;28;20458;-62
2022/12/29 11:46:03;;;;;;;6.88;1.65;;;10.80;99.90;;;;;;5050471;28;20943;-54
2022/12/29 11:48:33;;;;;;;6.20;1.37;;;10.80;1.00;;;;;;5051341;28;20787;-57
2022/12/29 11:51:00;;;;;;;7.70;1.50;;;10.90;99.90;;;;;;5050949;28;20457;-56
2022/12/29 11:53:31;;;;;;;5.23;1.27;;;10.80;99.90;;;;;;5051776;28;20209;-52
2022/12/29 11:56:01;;;;;;;3.30;1.10;;;10.80;99.90;;;;;;5052123;28;20202;-52
2022/12/29 11:58:32;;;;;;;3.80;1.03;;;10.70;99.90;;;;;;5057247;28;20937;-56
2022/12/29 12:01:02;;;;;;;8.23;1.20;;;10.70;1.00;;;;;;5072492;28;20209;-50
2022/12/29 12:03:33;;;;;;;7.07;1.80;;;10.70;1.00;;;;;;5072164;28;20205;-52
2022/12/29 12:06:03;;;;;;;8.50;1.10;;;10.70;1.00;;;;;;5071693;28;20286;-51
2022/12/29 12:08:36;;;;;;;7.13;1.30;;;10.70;1.00;;;;;;5072427;28;20244;-51
2022/12/29 12:11:07;;;;;;;3.10;1.00;;;10.70;99.90;;;;;;5072452;28;20263;-52
2022/12/29 12:13:39;;;;;;;3.83;1.20;;;10.70;99.90;;;;;;5072514;28;20208;-54
2022/12/29 12:16:10;;;;;;;4.13;1.20;;;10.70;99.90;;;;;;5071795;28;20209;-51
2022/12/29 12:18:45;;;;;;;3.83;1.30;;;10.60;1.00;;;;;;5072180;28;20228;-53
2022/12/29 12:21:21;;;;;;;4.57;1.27;;;10.70;99.90;;;;;;5072272;28;20300;-54
2022/12/29 12:24:11;;;;;;;4.70;1.07;;;10.60;1.00;;;;;;5072127;28;20213;-50
2022/12/29 12:26:43;;;;;;;6.20;1.87;;;10.70;1.00;;;;;;5063434;28;20235;-49
2022/12/29 12:29:15;;;;;;;6.53;1.13;;;10.70;1.00;;;;;;5053850;28;20629;-48
2022/12/29 12:31:48;;;;;;;2.60;0.77;;;10.70;99.90;;;;;;5051864;28;20206;-54
2022/12/29 12:34:22;;;;;;;5.20;1.20;;;10.70;99.90;;;;;;5051666;28;20213;-53
2022/12/29 12:37:19;;;;;;;7.67;1.70;;;10.70;99.90;;;;;;5051553;28;20264;-52
2022/12/29 12:40:00;;;;;;;3.50;1.10;;;10.60;99.90;;;;;;4995452;28;20336;-49
2022/12/29 12:42:40;;;;;;;2.07;1.00;;;10.70;99.90;;;;;;5051962;28;20259;-55
2022/12/29 12:45:28;;;;;;;4.27;1.10;;;10.60;99.90;;;;;;5051455;28;20205;-49
2022/12/29 12:48:07;;;;;;;2.80;1.00;;;10.60;99.90;;;;;;5051853;28;20632;-55
2022/12/29 12:50:47;;;;;;;4.63;1.13;;;10.60;99.90;;;;;;5051825;28;20252;-56
2022/12/29 12:53:32;;;;;;;6.27;1.50;;;10.60;99.90;;;;;;5051542;28;20627;-51
2022/12/29 12:56:22;;;;;;;6.90;1.10;;;10.60;99.90;;;;;;5059802;28;20250;-56
2022/12/29 12:58:54;;;;;;;6.23;1.30;;;10.60;99.90;;;;;;5051876;28;20222;-50
2022/12/29 13:01:36;;;;;;;4.67;0.97;;;10.50;1.00;;;;;;5051649;28;20213;-60
2022/12/29 13:04:54;;;;;;;4.57;1.00;;;10.50;99.90;;;;;;5052238;28;20206;-54
2022/12/29 13:07:34;;;;;;;4.27;1.30;;;10.60;99.90;;;;;;5015067;28;20776;-59
2022/12/29 13:10:23;;;;;;;4.07;1.30;;;10.50;99.90;;;;;;5051608;28;20233;-54
2022/12/29 13:12:56;;;;;;;6.53;1.10;;;10.60;99.90;;;;;;5051767;28;20287;-53
2022/12/29 13:15:41;;;;;;;3.90;1.53;;;10.50;99.90;;;;;;5051987;28;20713;-53
2022/12/29 13:18:18;;;;;;;6.57;1.60;;;10.50;99.90;;;;;;5051129;28;20240;-55
2022/12/29 13:20:50;;;;;;;4.37;0.90;;;10.50;99.90;;;;;;5051730;28;20216;-52
2022/12/29 13:23:24;;;;;;;6.73;1.33;;;10.50;99.90;;;;;;5051385;28;20239;-55
2022/12/29 13:25:55;;;;;;;7.87;1.10;;;10.50;1.00;;;;;;5050989;28;20225;-51
2022/12/29 13:28:30;;;;;;;3.20;0.87;;;10.50;99.90;;;;;;5059580;28;20225;-56
2022/12/29 13:31:03;;;;;;;4.73;1.40;;;10.50;99.90;;;;;;5051470;28;20212;-50
2022/12/29 13:33:41;;;;;;;6.80;1.30;;;10.40;99.90;;;;;;5045574;28;20317;-53
2022/12/29 13:36:15;;;;;;;4.33;1.13;;;10.40;1.00;;;;;;5060938;28;20687;-57
2022/12/29 13:38:47;;;;;;;5.53;1.27;;;10.30;1.00;;;;;;5050692;28;20233;-56
2022/12/29 13:41:28;;;;;;;2.70;0.80;;;10.30;1.00;;;;;;5059780;28;20210;-64
2022/12/29 13:43:56;;;;;;;6.93;1.13;;;10.30;1.00;;;;;;5050857;28;20260;-62
2022/12/29 13:46:27;;;;;;;5.03;1.20;;;10.30;1.00;;;;;;5052227;28;20230;-59
2022/12/29 13:48:59;;;;;;;4.93;1.43;;;10.30;1.00;;;;;;5050967;28;20225;-63
2022/12/29 13:51:27;;;;;;;4.67;1.30;;;10.30;1.00;;;;;;5053004;28;20572;-63